Time;durP1;ratioP1;P1;durP2;ratioP2;P2;SDS_P1;SDS_P2;PMS_P1;PMS_P2;Temp;Humidity;BMP_temperature;BMP_pressure;BME280_temperature;BME280_humidity;BME280_pressure;Samples;Min_cycle;Max_cycle;Signal;HPM_P1;HPM_P2
2023/10/23 00:01:14;;;;;;;11.48;2.42;;;;;;;;;;5005109;28;20376;-77
2023/10/23 00:03:41;;;;;;;9.75;2.80;;;;;;;;;;5003486;28;20045;-77
2023/10/23 00:06:06;;;;;;;4.93;2.35;;;;;;;;;;5004249;28;20034;-77
2023/10/23 00:08:32;;;;;;;4.68;2.50;;;;;;;;;;5005114;28;20401;-77
2023/10/23 00:10:57;;;;;;;5.28;2.35;;;;;;;;;;5003445;28;20041;-77
2023/10/23 00:13:22;;;;;;;4.55;2.40;;;;;;;;;;4991965;28;20564;-77
2023/10/23 00:15:48;;;;;;;7.55;2.83;;;;;;;;;;4984968;28;20082;-77
2023/10/23 00:18:13;;;;;;;8.90;3.00;;;;;;;;;;4985183;28;20695;-77
2023/10/23 00:20:38;;;;;;;11.02;2.92;;;;;;;;;;4985805;28;20084;-77
2023/10/23 00:23:04;;;;;;;5.43;2.50;;;;;;;;;;5000342;28;20037;-77
2023/10/23 00:25:29;;;;;;;6.35;2.42;;;;;;;;;;5005081;28;20041;-77
2023/10/23 00:27:54;;;;;;;5.57;2.85;;;;;;;;;;5003201;28;20046;-77
2023/10/23 00:30:20;;;;;;;5.00;2.38;;;;;;;;;;5003854;28;20030;-77
2023/10/23 00:32:45;;;;;;;11.57;3.00;;;;;;;;;;5006286;28;20057;-77
2023/10/23 00:35:10;;;;;;;6.00;2.42;;;;;;;;;;5014165;28;20048;-77
2023/10/23 00:37:36;;;;;;;9.57;2.75;;;;;;;;;;5015944;28;20029;-77
2023/10/23 00:40:01;;;;;;;5.57;2.28;;;;;;;;;;5003169;28;20026;-77
2023/10/23 00:42:26;;;;;;;6.93;3.00;;;;;;;;;;5004413;28;20113;-77
2023/10/23 00:44:52;;;;;;;6.20;2.72;;;;;;;;;;5002986;28;20106;-77
2023/10/23 00:47:18;;;;;;;8.40;2.88;;;;;;;;;;4999581;28;20485;-77
2023/10/23 00:49:44;;;;;;;7.43;2.50;;;;;;;;;;4997667;28;20026;-77
2023/10/23 00:52:10;;;;;;;6.07;2.40;;;;;;;;;;5004867;28;20060;-77
2023/10/23 00:54:36;;;;;;;8.00;2.65;;;;;;;;;;5003989;28;20076;-77
2023/10/23 00:57:03;;;;;;;8.55;2.30;;;;;;;;;;5002570;28;20142;-77
2023/10/23 00:59:29;;;;;;;7.47;2.60;;;;;;;;;;5004225;28;20092;-77
2023/10/23 01:01:56;;;;;;;8.88;2.58;;;;;;;;;;5004640;28;20100;-77
2023/10/23 01:04:21;;;;;;;5.00;2.45;;;;;;;;;;5004189;28;20026;-77
2023/10/23 01:06:47;;;;;;;5.32;2.53;;;;;;;;;;5002563;28;20470;-77
2023/10/23 01:09:12;;;;;;;7.82;2.70;;;;;;;;;;5004263;28;20050;-77
2023/10/23 01:11:37;;;;;;;15.48;2.85;;;;;;;;;;5004081;28;20034;-77
2023/10/23 01:14:03;;;;;;;9.63;2.60;;;;;;;;;;4998452;28;20044;-77
2023/10/23 01:16:28;;;;;;;10.30;2.90;;;;;;;;;;5002970;28;20053;-77
2023/10/23 01:18:54;;;;;;;6.07;2.20;;;;;;;;;;5003944;28;20514;-77
2023/10/23 01:21:20;;;;;;;7.75;2.55;;;;;;;;;;5004076;28;20046;-77
2023/10/23 01:23:49;;;;;;;7.78;3.28;;;;;;;;;;5002508;28;20042;-77
2023/10/23 01:26:14;;;;;;;6.70;2.58;;;;;;;;;;5001089;28;20516;-77
2023/10/23 01:28:40;;;;;;;8.35;2.58;;;;;;;;;;5003944;28;20088;-77
2023/10/23 01:31:05;;;;;;;8.70;3.00;;;;;;;;;;5002754;28;20114;-77
2023/10/23 01:33:30;;;;;;;10.18;2.60;;;;;;;;;;5003776;28;20540;-77
2023/10/23 01:35:56;;;;;;;8.43;2.95;;;;;;;;;;5001747;28;20080;-77
2023/10/23 01:38:21;;;;;;;7.90;2.97;;;;;;;;;;5006484;28;20129;-77
2023/10/23 01:40:47;;;;;;;6.57;2.63;;;;;;;;;;5007669;28;20034;-77
2023/10/23 01:43:12;;;;;;;8.15;2.58;;;;;;;;;;5008172;28;20160;-77
2023/10/23 01:45:38;;;;;;;9.23;2.70;;;;;;;;;;5007465;28;20065;-77
2023/10/23 01:48:04;;;;;;;7.00;2.70;;;;;;;;;;5008085;28;20053;-77
2023/10/23 01:50:29;;;;;;;8.60;2.88;;;;;;;;;;5008194;28;20042;-77
2023/10/23 01:52:54;;;;;;;7.22;2.70;;;;;;;;;;5010415;28;20034;-77
2023/10/23 01:55:20;;;;;;;8.60;2.35;;;;;;;;;;5019603;28;20033;-77
2023/10/23 01:57:45;;;;;;;3.88;2.25;;;;;;;;;;5023939;28;20056;-77
2023/10/23 02:00:11;;;;;;;5.22;2.22;;;;;;;;;;5013914;28;20061;-77
2023/10/23 02:02:37;;;;;;;6.43;2.17;;;;;;;;;;5008916;28;20042;-77
2023/10/23 02:05:03;;;;;;;6.68;2.55;;;;;;;;;;5006591;28;20062;-77
2023/10/23 02:07:28;;;;;;;8.93;2.13;;;;;;;;;;5008009;28;20029;-77
2023/10/23 02:09:56;;;;;;;8.75;2.72;;;;;;;;;;5007192;28;20030;-77
2023/10/23 02:12:22;;;;;;;6.57;2.45;;;;;;;;;;5005403;28;21095;-77
2023/10/23 02:14:50;;;;;;;6.85;2.70;;;;;;;;;;5006942;28;20067;-77
2023/10/23 02:17:17;;;;;;;12.98;3.13;;;;;;;;;;5005113;28;20030;-77
2023/10/23 02:19:42;;;;;;;11.70;2.80;;;;;;;;;;5005088;28;20029;-77
2023/10/23 02:22:07;;;;;;;7.53;2.75;;;;;;;;;;5007240;28;20021;-77
2023/10/23 02:24:33;;;;;;;8.65;2.97;;;;;;;;;;5005278;28;20457;-77
2023/10/23 02:26:58;;;;;;;10.15;2.65;;;;;;;;;;5007190;28;20194;-77
2023/10/23 02:29:23;;;;;;;5.00;2.72;;;;;;;;;;5006921;28;20042;-76
2023/10/23 02:31:49;;;;;;;8.60;2.63;;;;;;;;;;5005176;28;20631;-77
2023/10/23 02:34:14;;;;;;;8.13;2.70;;;;;;;;;;5007902;28;20097;-77
2023/10/23 02:36:40;;;;;;;6.80;3.13;;;;;;;;;;5004620;28;20034;-77
2023/10/23 02:39:06;;;;;;;8.05;2.70;;;;;;;;;;5007038;28;20069;-77
2023/10/23 02:41:31;;;;;;;8.98;2.83;;;;;;;;;;5005169;28;20038;-77
2023/10/23 02:43:57;;;;;;;16.00;2.72;;;;;;;;;;5005920;28;20080;-77
2023/10/23 02:46:22;;;;;;;6.95;2.67;;;;;;;;;;5005413;28;20026;-77
2023/10/23 02:48:47;;;;;;;9.02;2.83;;;;;;;;;;5006385;28;20084;-77
2023/10/23 02:51:13;;;;;;;9.80;2.90;;;;;;;;;;5006258;28;20045;-77
2023/10/23 02:53:38;;;;;;;7.00;2.40;;;;;;;;;;5005987;28;20623;-77
2023/10/23 02:56:09;;;;;;;12.68;2.70;;;;;;;;;;5005215;28;20056;-77
2023/10/23 02:58:35;;;;;;;9.63;2.53;;;;;;;;;;4992636;28;20054;-77
2023/10/23 03:01:01;;;;;;;6.45;2.72;;;;;;;;;;4986034;28;20029;-77
2023/10/23 03:03:26;;;;;;;8.82;2.85;;;;;;;;;;4986950;28;20065;-77
2023/10/23 03:05:52;;;;;;;6.15;2.40;;;;;;;;;;4988429;28;20579;-76
2023/10/23 03:08:17;;;;;;;7.07;2.50;;;;;;;;;;5004690;28;20066;-77
2023/10/23 03:10:43;;;;;;;5.13;2.20;;;;;;;;;;5006786;28;20108;-77
2023/10/23 03:13:08;;;;;;;7.28;2.40;;;;;;;;;;4999997;28;20045;-77
2023/10/23 03:15:35;;;;;;;7.55;2.70;;;;;;;;;;4980911;28;20041;-77
2023/10/23 03:18:03;;;;;;;7.18;2.33;;;;;;;;;;4999590;28;20030;-77
2023/10/23 03:20:32;;;;;;;4.55;2.28;;;;;;;;;;4987686;28;20806;-77
2023/10/23 03:22:58;;;;;;;4.90;2.80;;;;;;;;;;4990771;28;20282;-77
2023/10/23 03:25:24;;;;;;;9.15;2.90;;;;;;;;;;5001471;28;20477;-77
2023/10/23 03:27:50;;;;;;;8.98;3.00;;;;;;;;;;4987980;28;20042;-76
2023/10/23 03:30:16;;;;;;;4.95;2.33;;;;;;;;;;4987739;28;20034;-77
2023/10/23 03:32:41;;;;;;;9.02;2.83;;;;;;;;;;5005190;28;20453;-77
2023/10/23 03:35:07;;;;;;;7.13;2.83;;;;;;;;;;4987570;28;20059;-76
2023/10/23 03:37:32;;;;;;;9.20;2.92;;;;;;;;;;4987693;28;20561;-76
2023/10/23 03:39:57;;;;;;;8.93;3.05;;;;;;;;;;5005437;28;20491;-77
2023/10/23 03:42:23;;;;;;;8.55;3.17;;;;;;;;;;4987663;28;20092;-76
2023/10/23 03:44:49;;;;;;;5.15;2.60;;;;;;;;;;5005246;28;20161;-77
2023/10/23 03:47:14;;;;;;;8.35;2.95;;;;;;;;;;5005716;28;20030;-77
2023/10/23 03:49:39;;;;;;;4.43;2.45;;;;;;;;;;4986868;28;20037;-76
2023/10/23 03:52:05;;;;;;;8.25;2.60;;;;;;;;;;5005885;28;20025;-77
2023/10/23 03:54:30;;;;;;;7.80;3.33;;;;;;;;;;5004710;28;20034;-77
2023/10/23 03:56:55;;;;;;;8.10;2.80;;;;;;;;;;4987704;28;20456;-77
2023/10/23 03:59:21;;;;;;;12.80;2.83;;;;;;;;;;5012245;28;20038;-77
2023/10/23 04:01:46;;;;;;;4.43;2.25;;;;;;;;;;5023312;28;20048;-77
2023/10/23 04:04:12;;;;;;;6.03;2.72;;;;;;;;;;5025265;28;20021;-77
2023/10/23 04:06:40;;;;;;;6.45;2.50;;;;;;;;;;5024716;28;20034;-77
2023/10/23 04:09:06;;;;;;;7.53;2.20;;;;;;;;;;5024765;28;20053;-77
2023/10/23 04:11:32;;;;;;;7.10;2.20;;;;;;;;;;5023371;28;20102;-77
2023/10/23 04:13:57;;;;;;;4.75;1.80;;;;;;;;;;5024751;28;20059;-77
2023/10/23 04:16:22;;;;;;;4.88;2.40;;;;;;;;;;5024936;28;20044;-77
2023/10/23 04:18:48;;;;;;;10.80;3.22;;;;;;;;;;5024396;28;20038;-77
2023/10/23 04:21:13;;;;;;;5.57;2.75;;;;;;;;;;5005922;28;20113;-77
2023/10/23 04:23:39;;;;;;;9.13;2.67;;;;;;;;;;5006952;28;20119;-77
2023/10/23 04:26:06;;;;;;;4.30;2.17;;;;;;;;;;5024274;28;20030;-76
2023/10/23 04:28:31;;;;;;;7.00;2.13;;;;;;;;;;5024489;28;20029;-77
2023/10/23 04:30:57;;;;;;;4.72;2.50;;;;;;;;;;5025352;28;20021;-77
2023/10/23 04:33:23;;;;;;;7.78;2.10;;;;;;;;;;5026330;28;20148;-77
2023/10/23 04:35:56;;;;;;;5.70;2.08;;;;;;;;;;5033939;28;20547;-77
2023/10/23 04:38:22;;;;;;;10.77;2.45;;;;;;;;;;5023933;28;20037;-77
2023/10/23 04:40:50;;;;;;;9.18;2.00;;;;;;;;;;5032839;28;20080;-77
2023/10/23 04:43:16;;;;;;;4.47;1.83;;;;;;;;;;5026022;28;20104;-77
2023/10/23 04:45:41;;;;;;;10.18;2.15;;;;;;;;;;5023641;28;20128;-77
2023/10/23 04:48:07;;;;;;;3.90;2.15;;;;;;;;;;5022994;28;20029;-76
2023/10/23 04:50:33;;;;;;;5.78;2.10;;;;;;;;;;5005537;28;20033;-77
2023/10/23 04:53:01;;;;;;;7.80;2.00;;;;;;;;;;5022874;28;20348;-77
2023/10/23 04:55:40;;;;;;;7.35;2.03;;;;;;;;;;5004996;28;20072;-77
2023/10/23 04:58:06;;;;;;;8.85;2.58;;;;;;;;;;5023331;28;20153;-77
2023/10/23 05:00:35;;;;;;;11.15;2.90;;;;;;;;;;5023242;28;20037;-77
2023/10/23 05:03:00;;;;;;;8.00;2.58;;;;;;;;;;5016108;28;20033;-76
2023/10/23 05:05:25;;;;;;;13.30;3.10;;;;;;;;;;5003695;28;20044;-76
2023/10/23 05:07:51;;;;;;;7.15;2.08;;;;;;;;;;5003727;28;20834;-77
2023/10/23 05:10:16;;;;;;;8.77;1.92;;;;;;;;;;4986772;28;20022;-76
2023/10/23 05:12:42;;;;;;;9.25;2.58;;;;;;;;;;5007801;28;20083;-76
2023/10/23 05:15:10;;;;;;;8.38;2.85;;;;;;;;;;5023804;28;20120;-76
2023/10/23 05:17:36;;;;;;;11.45;2.25;;;;;;;;;;5015741;28;20039;-77
2023/10/23 05:20:01;;;;;;;8.68;2.25;;;;;;;;;;5012706;28;20029;-77
2023/10/23 05:22:27;;;;;;;6.30;2.17;;;;;;;;;;5023925;28;20159;-77
2023/10/23 05:24:53;;;;;;;10.38;2.75;;;;;;;;;;5010126;28;20037;-76
2023/10/23 05:27:18;;;;;;;16.00;2.60;;;;;;;;;;5004349;28;20073;-76
2023/10/23 05:29:44;;;;;;;7.57;2.17;;;;;;;;;;4985783;28;20034;-77
2023/10/23 05:32:09;;;;;;;10.98;2.53;;;;;;;;;;5004208;28;20424;-77
2023/10/23 05:34:34;;;;;;;8.57;2.58;;;;;;;;;;5020199;28;20044;-77
2023/10/23 05:37:00;;;;;;;6.68;3.13;;;;;;;;;;5023687;28;20022;-77
2023/10/23 05:39:26;;;;;;;9.77;2.22;;;;;;;;;;5023794;28;20118;-76
2023/10/23 05:41:51;;;;;;;10.82;2.55;;;;;;;;;;5022619;28;20041;-76
2023/10/23 05:44:17;;;;;;;5.38;2.03;;;;;;;;;;5023931;28;20044;-76
2023/10/23 05:46:42;;;;;;;13.00;2.30;;;;;;;;;;5023706;28;20082;-76
2023/10/23 05:49:07;;;;;;;13.02;2.85;;;;;;;;;;5024345;28;20036;-77
2023/10/23 05:51:33;;;;;;;10.18;3.20;;;;;;;;;;5020785;28;20045;-77
2023/10/23 05:53:58;;;;;;;14.38;2.88;;;;;;;;;;5007713;28;20041;-77
2023/10/23 05:56:23;;;;;;;11.80;3.40;;;;;;;;;;5031728;28;20417;-76
2023/10/23 05:58:50;;;;;;;16.60;3.33;;;;;;;;;;5018785;28;20053;-76
2023/10/23 06:01:16;;;;;;;7.40;2.60;;;;;;;;;;4990345;28;20022;-76
2023/10/23 06:03:42;;;;;;;9.52;3.03;;;;;;;;;;5003083;28;20416;-76
2023/10/23 06:06:07;;;;;;;8.18;2.47;;;;;;;;;;5003139;28;20045;-76
2023/10/23 06:08:33;;;;;;;5.38;2.75;;;;;;;;;;4985928;28;20638;-75
2023/10/23 06:11:01;;;;;;;9.50;2.78;;;;;;;;;;5002644;28;20038;-75
2023/10/23 06:13:27;;;;;;;5.32;2.40;;;;;;;;;;4997476;28;20124;-75
2023/10/23 06:15:52;;;;;;;6.00;2.92;;;;;;;;;;5019879;28;20129;-76
2023/10/23 06:18:18;;;;;;;5.38;2.45;;;;;;;;;;5014272;28;20536;-76
2023/10/23 06:20:44;;;;;;;6.78;3.00;;;;;;;;;;4985004;28;20188;-76
2023/10/23 06:23:09;;;;;;;9.02;2.95;;;;;;;;;;5001348;28;20041;-75
2023/10/23 06:25:35;;;;;;;9.13;3.55;;;;;;;;;;5004880;28;20018;-76
2023/10/23 06:28:00;;;;;;;9.45;2.63;;;;;;;;;;5006756;28;20049;-75
2023/10/23 06:30:25;;;;;;;7.43;3.03;;;;;;;;;;5006509;28;20075;-75
2023/10/23 06:32:51;;;;;;;11.90;5.28;;;;;;;;;;4988723;28;20042;-76
2023/10/23 06:35:16;;;;;;;7.03;2.60;;;;;;;;;;5023023;28;20029;-76
2023/10/23 06:37:42;;;;;;;6.22;3.15;;;;;;;;;;5026529;28;20028;-75
2023/10/23 06:40:08;;;;;;;8.20;3.30;;;;;;;;;;5023533;28;20048;-75
2023/10/23 06:42:34;;;;;;;7.38;2.88;;;;;;;;;;5025617;28;20038;-76
2023/10/23 06:44:59;;;;;;;7.85;2.67;;;;;;;;;;5026823;28;20057;-76
2023/10/23 06:47:25;;;;;;;14.10;3.60;;;;;;;;;;5025869;28;20569;-75
2023/10/23 06:49:51;;;;;;;12.18;4.63;;;;;;;;;;5008248;28;20026;-76
2023/10/23 06:52:16;;;;;;;11.65;4.35;;;;;;;;;;5025639;28;20461;-75
2023/10/23 06:54:41;;;;;;;11.90;3.50;;;;;;;;;;5026631;28;20604;-75
2023/10/23 06:57:07;;;;;;;11.63;3.22;;;;;;;;;;5008100;28;20045;-75
2023/10/23 06:59:33;;;;;;;11.65;5.53;;;;;;;;;;5023698;28;20036;-75
2023/10/23 07:02:00;;;;;;;13.52;5.50;;;;;;;;;;5025472;28;20614;-74
2023/10/23 07:04:25;;;;;;;10.60;4.00;;;;;;;;;;5027000;28;20100;-75
2023/10/23 07:06:51;;;;;;;7.40;3.55;;;;;;;;;;5025568;28;20121;-74
2023/10/23 07:09:17;;;;;;;12.88;3.30;;;;;;;;;;5025101;28;20109;-75
2023/10/23 07:11:43;;;;;;;12.18;4.45;;;;;;;;;;5026402;28;20037;-74
2023/10/23 07:14:09;;;;;;;12.77;5.30;;;;;;;;;;5008047;28;20042;-75
2023/10/23 07:16:34;;;;;;;11.98;3.58;;;;;;;;;;5032209;28;20036;-75
2023/10/23 07:19:03;;;;;;;12.35;4.13;;;;;;;;;;5042088;28;20425;-76
2023/10/23 07:21:29;;;;;;;10.38;3.78;;;;;;;;;;5020520;28;20416;-75
2023/10/23 07:23:54;;;;;;;14.02;4.53;;;;;;;;;;5027785;28;20657;-74
2023/10/23 07:26:19;;;;;;;10.38;4.10;;;;;;;;;;5025996;28;20656;-73
2023/10/23 07:28:45;;;;;;;15.50;4.18;;;;;;;;;;4999007;28;20533;-74
2023/10/23 07:31:12;;;;;;;10.93;4.30;;;;;;;;;;5019875;28;20561;-74
2023/10/23 07:33:37;;;;;;;7.93;3.70;;;;;;;;;;5009975;28;20048;-74
2023/10/23 07:36:09;;;;;;;18.90;5.97;;;;;;;;;;4986614;28;20041;-74
2023/10/23 07:38:36;;;;;;;9.40;4.45;;;;;;;;;;5004527;28;20065;-74
2023/10/23 07:41:01;;;;;;;11.75;4.40;;;;;;;;;;4987278;28;20044;-74
2023/10/23 07:43:28;;;;;;;14.25;4.70;;;;;;;;;;5004048;28;20026;-74
2023/10/23 07:45:54;;;;;;;11.18;4.60;;;;;;;;;;5004573;28;20045;-74
2023/10/23 07:48:24;;;;;;;12.07;4.20;;;;;;;;;;5018051;28;20135;-74
2023/10/23 07:50:50;;;;;;;12.85;4.13;;;;;;;;;;5018419;28;20147;-74
2023/10/23 07:53:16;;;;;;;13.25;3.83;;;;;;;;;;5022858;28;20034;-74
2023/10/23 07:55:42;;;;;;;10.48;4.55;;;;;;;;;;5024563;28;20109;-74
2023/10/23 07:58:08;;;;;;;13.52;5.57;;;;;;;;;;5010876;28;20034;-73
2023/10/23 08:00:33;;;;;;;17.42;8.73;;;;;;;;;;4994675;28;20247;-74
2023/10/23 08:02:59;;;;;;;15.35;5.00;;;;;;;;;;5009756;28;20087;-74
2023/10/23 08:05:25;;;;;;;14.45;4.78;;;;;;;;;;5006795;28;20404;-74
2023/10/23 08:07:50;;;;;;;11.30;4.15;;;;;;;;;;5001859;28;20524;-74
2023/10/23 08:10:16;;;;;;;11.95;4.75;;;;;;;;;;5018972;28;20021;-74
2023/10/23 08:12:42;;;;;;;13.30;4.72;;;;;;;;;;5001517;28;20061;-73
2023/10/23 08:15:08;;;;;;;10.45;4.18;;;;;;;;;;5008418;28;20057;-74
2023/10/23 08:17:33;;;;;;;14.63;4.80;;;;;;;;;;5029675;28;20076;-74
2023/10/23 08:19:59;;;;;;;9.65;4.40;;;;;;;;;;5001223;28;20121;-74
2023/10/23 08:22:24;;;;;;;16.23;4.93;;;;;;;;;;5024468;28;20436;-74
2023/10/23 08:24:50;;;;;;;12.02;4.15;;;;;;;;;;5022440;28;20037;-74
2023/10/23 08:27:15;;;;;;;12.48;4.05;;;;;;;;;;5012141;28;20080;-74
2023/10/23 08:29:41;;;;;;;16.42;4.97;;;;;;;;;;4988732;28;20046;-75
2023/10/23 08:32:06;;;;;;;10.70;4.80;;;;;;;;;;4999395;28;20085;-74
2023/10/23 08:34:32;;;;;;;15.95;4.82;;;;;;;;;;5009988;28;20493;-75
2023/10/23 08:36:57;;;;;;;13.18;4.38;;;;;;;;;;5024117;28;20028;-76
2023/10/23 08:39:24;;;;;;;11.73;4.00;;;;;;;;;;5019065;28;20059;-75
2023/10/23 08:41:49;;;;;;;10.07;3.90;;;;;;;;;;5030191;28;20532;-75
2023/10/23 08:44:18;;;;;;;8.80;3.40;;;;;;;;;;5024111;28;20026;-76
2023/10/23 08:46:44;;;;;;;10.35;4.00;;;;;;;;;;5023231;28;20060;-75
2023/10/23 08:49:10;;;;;;;10.40;3.80;;;;;;;;;;5006516;28;20064;-75
2023/10/23 08:51:39;;;;;;;10.43;3.75;;;;;;;;;;5023590;28;20048;-76
2023/10/23 08:54:07;;;;;;;14.77;3.45;;;;;;;;;;5005834;28;20685;-75
2023/10/23 08:56:37;;;;;;;12.52;3.53;;;;;;;;;;5023988;28;20037;-76
2023/10/23 08:59:03;;;;;;;17.52;4.13;;;;;;;;;;5026125;28;20045;-77
2023/10/23 09:01:28;;;;;;;9.95;3.33;;;;;;;;;;5005310;28;20030;-76
2023/10/23 09:03:54;;;;;;;12.75;4.65;;;;;;;;;;5005935;28;20570;-77
2023/10/23 09:06:19;;;;;;;8.88;3.38;;;;;;;;;;5023442;28;20050;-77
2023/10/23 09:08:45;;;;;;;11.32;4.00;;;;;;;;;;5005495;28;20099;-77
2023/10/23 09:11:11;;;;;;;13.70;3.58;;;;;;;;;;5031484;28;20045;-77
2023/10/23 09:13:38;;;;;;;16.65;4.25;;;;;;;;;;5028029;28;20033;-77
2023/10/23 09:16:09;;;;;;;12.60;3.95;;;;;;;;;;5023192;28;20060;-76
2023/10/23 09:18:46;;;;;;;14.02;3.75;;;;;;;;;;5023805;28;20041;-76
2023/10/23 09:21:12;;;;;;;12.32;4.13;;;;;;;;;;5023086;28;20071;-75
2023/10/23 09:23:53;;;;;;;16.10;3.70;;;;;;;;;;5004974;28;20030;-77
2023/10/23 09:26:19;;;;;;;11.80;3.70;;;;;;;;;;5019015;28;20152;-74
2023/10/23 09:28:47;;;;;;;11.95;3.72;;;;;;;;;;5018293;28;20037;-74
2023/10/23 09:31:13;;;;;;;7.72;3.72;;;;;;;;;;5003574;28;20397;-74
2023/10/23 09:33:38;;;;;;;14.18;4.72;;;;;;;;;;5023521;28;20510;-74
2023/10/23 09:36:07;;;;;;;16.60;5.35;;;;;;;;;;5005105;28;20524;-74
2023/10/23 09:38:34;;;;;;;12.65;4.03;;;;;;;;;;5004486;28;20022;-73
2023/10/23 09:41:00;;;;;;;15.27;4.40;;;;;;;;;;5014116;28;20630;-74
2023/10/23 09:43:26;;;;;;;13.05;3.92;;;;;;;;;;5020049;28;20091;-73
2023/10/23 09:45:52;;;;;;;9.68;3.78;;;;;;;;;;5022983;28;20519;-74
2023/10/23 09:48:19;;;;;;;9.65;3.85;;;;;;;;;;5023710;28;20068;-74
2023/10/23 09:50:49;;;;;;;9.82;3.20;;;;;;;;;;5005307;28;20033;-72
2023/10/23 09:53:16;;;;;;;13.77;3.60;;;;;;;;;;5005544;28;20165;-73
2023/10/23 09:55:44;;;;;;;11.45;3.22;;;;;;;;;;5021976;28;20026;-73
2023/10/23 09:58:15;;;;;;;12.85;3.55;;;;;;;;;;5028956;28;20049;-73
2023/10/23 10:00:46;;;;;;;14.38;3.78;;;;;;;;;;5044000;28;20037;-73
2023/10/23 10:03:12;;;;;;;8.98;2.80;;;;;;;;;;5031500;28;20175;-73
2023/10/23 10:05:49;;;;;;;7.75;3.13;;;;;;;;;;5021642;28;20045;-73
2023/10/23 10:08:17;;;;;;;10.05;3.25;;;;;;;;;;4989914;28;20060;-73
2023/10/23 10:10:44;;;;;;;8.88;3.30;;;;;;;;;;5012202;28;21025;-73
2023/10/23 10:13:11;;;;;;;11.43;3.00;;;;;;;;;;5026832;28;20029;-73
2023/10/23 10:15:38;;;;;;;13.00;3.25;;;;;;;;;;5008957;28;20037;-73
2023/10/23 10:18:03;;;;;;;9.52;3.63;;;;;;;;;;5008899;28;20069;-73
2023/10/23 10:20:29;;;;;;;11.32;3.40;;;;;;;;;;5026423;28;20038;-73
2023/10/23 10:22:59;;;;;;;15.85;3.83;;;;;;;;;;5025917;28;20103;-73
2023/10/23 10:25:26;;;;;;;11.13;3.75;;;;;;;;;;5025826;28;20025;-73
2023/10/23 10:27:58;;;;;;;8.00;2.83;;;;;;;;;;5016091;28;20133;-73
2023/10/23 10:30:42;;;;;;;13.30;3.40;;;;;;;;;;5019017;28;20420;-73
2023/10/23 10:33:20;;;;;;;10.77;2.92;;;;;;;;;;5020509;28;20075;-74
2023/10/23 10:36:16;;;;;;;10.60;3.25;;;;;;;;;;5025644;28;20041;-73
2023/10/23 10:38:42;;;;;;;7.43;2.55;;;;;;;;;;4991916;28;20041;-73
2023/10/23 10:41:16;;;;;;;5.82;2.60;;;;;;;;;;5005084;28;20068;-73
2023/10/23 10:43:41;;;;;;;6.82;2.58;;;;;;;;;;5012375;28;20038;-73
2023/10/23 10:46:21;;;;;;;11.07;2.47;;;;;;;;;;5027105;28;20431;-73
2023/10/23 10:48:48;;;;;;;6.15;2.60;;;;;;;;;;5025540;28;20038;-73
2023/10/23 10:51:20;;;;;;;8.40;2.40;;;;;;;;;;5009025;28;21239;-73
2023/10/23 10:53:47;;;;;;;5.45;2.10;;;;;;;;;;5007107;28;20930;-73
2023/10/23 10:56:12;;;;;;;8.45;2.65;;;;;;;;;;5006544;28;20723;-73
2023/10/23 10:58:39;;;;;;;9.95;3.00;;;;;;;;;;5019663;28;20115;-74
2023/10/23 11:01:05;;;;;;;6.40;2.17;;;;;;;;;;5026580;28;20045;-74
2023/10/23 11:03:31;;;;;;;7.32;2.08;;;;;;;;;;5024390;28;20021;-72
2023/10/23 11:05:56;;;;;;;5.57;2.10;;;;;;;;;;5026474;28;20131;-73
2023/10/23 11:08:22;;;;;;;8.45;2.35;;;;;;;;;;5003023;28;20129;-72
2023/10/23 11:10:47;;;;;;;9.45;2.53;;;;;;;;;;5019616;28;20499;-72
2023/10/23 11:13:14;;;;;;;7.00;1.90;;;;;;;;;;5018332;28;20052;-72
2023/10/23 11:15:40;;;;;;;10.60;2.40;;;;;;;;;;5024071;28;20033;-74
2023/10/23 11:18:06;;;;;;;6.40;1.92;;;;;;;;;;5024936;28;20037;-76
2023/10/23 11:20:31;;;;;;;6.45;2.28;;;;;;;;;;5017406;28;20088;-76
2023/10/23 11:22:56;;;;;;;7.40;1.80;;;;;;;;;;5009214;28;20129;-76
2023/10/23 11:25:22;;;;;;;8.80;2.20;;;;;;;;;;5007349;28;20391;-75
2023/10/23 11:27:51;;;;;;;7.47;1.83;;;;;;;;;;5004274;28;20030;-76
2023/10/23 11:30:16;;;;;;;6.18;1.65;;;;;;;;;;5006876;28;20014;-76
2023/10/23 11:32:44;;;;;;;5.90;1.70;;;;;;;;;;5007133;28;20056;-76
2023/10/23 11:35:09;;;;;;;3.63;1.60;;;;;;;;;;4988990;28;20085;-76
2023/10/23 11:37:38;;;;;;;6.10;1.90;;;;;;;;;;5006705;28;20034;-77
2023/10/23 11:40:08;;;;;;;6.53;1.98;;;;;;;;;;5006633;28;20096;-76
2023/10/23 11:42:48;;;;;;;4.70;1.70;;;;;;;;;;5001485;28;20029;-76
2023/10/23 11:45:19;;;;;;;4.78;1.80;;;;;;;;;;5007619;28;20029;-76
2023/10/23 11:47:45;;;;;;;8.45;2.08;;;;;;;;;;5007110;28;20045;-76
2023/10/23 11:50:15;;;;;;;7.45;2.03;;;;;;;;;;5007016;28;20034;-76
2023/10/23 11:52:43;;;;;;;10.93;2.30;;;;;;;;;;5006866;28;20034;-76
2023/10/23 11:55:11;;;;;;;4.53;1.85;;;;;;;;;;5006418;28;20034;-76
2023/10/23 11:57:40;;;;;;;10.27;2.35;;;;;;;;;;5010539;28;20148;-76
2023/10/23 12:00:11;;;;;;;20.90;3.00;;;;;;;;;;5009313;28;20034;-76
2023/10/23 12:02:37;;;;;;;4.90;2.08;;;;;;;;;;5026422;28;20519;-75
2023/10/23 12:05:02;;;;;;;12.65;3.10;;;;;;;;;;5025998;28;20039;-76
2023/10/23 12:07:28;;;;;;;8.52;2.45;;;;;;;;;;5026210;28;20198;-76
2023/10/23 12:09:53;;;;;;;4.50;2.05;;;;;;;;;;5026023;28;20112;-76
2023/10/23 12:12:18;;;;;;;8.45;2.00;;;;;;;;;;5022589;28;20109;-76
2023/10/23 12:14:44;;;;;;;4.13;2.38;;;;;;;;;;4987947;28;20022;-76
2023/10/23 12:17:09;;;;;;;3.50;1.70;;;;;;;;;;4986423;28;20027;-76
2023/10/23 12:19:35;;;;;;;7.03;1.67;;;;;;;;;;4986665;28;20044;-76
2023/10/23 12:22:00;;;;;;;3.38;1.58;;;;;;;;;;4986413;28;20110;-76
2023/10/23 12:24:26;;;;;;;3.95;1.58;;;;;;;;;;4985298;28;20036;-76
2023/10/23 12:26:51;;;;;;;7.30;2.10;;;;;;;;;;5002165;28;20018;-76
2023/10/23 12:29:16;;;;;;;3.95;1.50;;;;;;;;;;4986617;28;20050;-76
2023/10/23 12:31:43;;;;;;;3.85;1.58;;;;;;;;;;5001937;28;20034;-76
2023/10/23 12:34:08;;;;;;;6.05;1.90;;;;;;;;;;5002524;28;20112;-76
2023/10/23 12:36:34;;;;;;;8.88;1.92;;;;;;;;;;5005149;28;20506;-76
2023/10/23 12:38:59;;;;;;;6.60;1.92;;;;;;;;;;5013685;28;20045;-76
2023/10/23 12:41:24;;;;;;;5.72;2.40;;;;;;;;;;5010957;28;20038;-73
2023/10/23 12:43:50;;;;;;;7.47;2.45;;;;;;;;;;5008290;28;20049;-74
2023/10/23 12:46:15;;;;;;;11.43;3.50;;;;;;;;;;5007273;28;20553;-73
2023/10/23 12:48:43;;;;;;;9.02;2.17;;;;;;;;;;5003276;28;20033;-74
2023/10/23 12:51:09;;;;;;;4.53;1.70;;;;;;;;;;5003477;28;20021;-74
2023/10/23 12:53:35;;;;;;;4.45;2.17;;;;;;;;;;5000923;28;20069;-77
2023/10/23 12:56:01;;;;;;;3.60;1.70;;;;;;;;;;5002263;28;20069;-74
2023/10/23 12:58:26;;;;;;;5.55;1.83;;;;;;;;;;4996235;28;20152;-74
2023/10/23 13:00:52;;;;;;;6.07;1.70;;;;;;;;;;4990914;28;20623;-74
2023/10/23 13:03:18;;;;;;;6.10;1.73;;;;;;;;;;4984511;28;20509;-74
2023/10/23 13:05:43;;;;;;;4.50;1.70;;;;;;;;;;4984825;28;20026;-74
2023/10/23 13:08:08;;;;;;;6.90;1.88;;;;;;;;;;4990330;28;20586;-74
2023/10/23 13:10:34;;;;;;;2.33;1.63;;;;;;;;;;4993025;28;20034;-75
2023/10/23 13:12:59;;;;;;;3.35;1.70;;;;;;;;;;5001900;28;20044;-75
2023/10/23 13:15:26;;;;;;;5.22;1.73;;;;;;;;;;5004748;28;20034;-74
2023/10/23 13:17:53;;;;;;;4.28;1.38;;;;;;;;;;5004847;28;20028;-74
2023/10/23 13:20:19;;;;;;;4.22;1.60;;;;;;;;;;5004500;28;20045;-74
2023/10/23 13:22:46;;;;;;;6.18;1.63;;;;;;;;;;5002781;28;20042;-74
2023/10/23 13:25:12;;;;;;;3.10;1.42;;;;;;;;;;5004566;28;20050;-74
2023/10/23 13:27:38;;;;;;;6.72;1.52;;;;;;;;;;5002786;28;20146;-75
2023/10/23 13:30:05;;;;;;;7.70;1.50;;;;;;;;;;5003528;28;20021;-74
2023/10/23 13:32:30;;;;;;;4.45;1.48;;;;;;;;;;5003793;28;20037;-75
2023/10/23 13:34:56;;;;;;;6.05;1.80;;;;;;;;;;5010285;28;20029;-75
2023/10/23 13:37:22;;;;;;;4.90;1.60;;;;;;;;;;5009432;28;20425;-74
2023/10/23 13:39:47;;;;;;;6.13;1.40;;;;;;;;;;5008863;28;20033;-74
2023/10/23 13:42:12;;;;;;;4.50;1.58;;;;;;;;;;5008867;28;20029;-75
2023/10/23 13:44:38;;;;;;;4.18;1.45;;;;;;;;;;5009685;28;20041;-75
2023/10/23 13:47:03;;;;;;;4.72;1.88;;;;;;;;;;5010609;28;20034;-74
2023/10/23 13:49:29;;;;;;;5.28;1.90;;;;;;;;;;5010200;28;20045;-75
2023/10/23 13:51:54;;;;;;;5.35;1.92;;;;;;;;;;5011010;28;20046;-75
2023/10/23 13:54:19;;;;;;;5.10;1.80;;;;;;;;;;5004569;28;20034;-74
2023/10/23 13:56:48;;;;;;;3.83;1.88;;;;;;;;;;5013068;28;20025;-74
2023/10/23 13:59:13;;;;;;;4.72;1.77;;;;;;;;;;5012801;28;20052;-75
2023/10/23 14:01:39;;;;;;;5.85;1.77;;;;;;;;;;5014401;28;20152;-74
2023/10/23 14:04:05;;;;;;;5.45;1.63;;;;;;;;;;5000942;28;20041;-74
2023/10/23 14:06:31;;;;;;;5.07;1.83;;;;;;;;;;5002435;28;20049;-74
2023/10/23 14:08:56;;;;;;;5.18;1.83;;;;;;;;;;5004749;28;20898;-75
2023/10/23 14:11:22;;;;;;;7.45;1.95;;;;;;;;;;5006845;28;20103;-74
2023/10/23 14:13:48;;;;;;;3.75;1.80;;;;;;;;;;5008707;28;20509;-74
2023/10/23 14:16:13;;;;;;;6.35;1.88;;;;;;;;;;5010549;28;20057;-74
2023/10/23 14:18:38;;;;;;;5.70;1.90;;;;;;;;;;5006194;28;20043;-74
2023/10/23 14:21:04;;;;;;;4.60;2.20;;;;;;;;;;5006970;28;20026;-74
2023/10/23 14:23:30;;;;;;;5.32;2.00;;;;;;;;;;5003615;28;20068;-74
2023/10/23 14:25:55;;;;;;;3.80;1.90;;;;;;;;;;5003580;28;20574;-74
2023/10/23 14:28:21;;;;;;;5.75;1.80;;;;;;;;;;5005995;28;20068;-74
2023/10/23 14:30:50;;;;;;;5.38;1.75;;;;;;;;;;5006174;28;20241;-74
2023/10/23 14:33:15;;;;;;;5.05;1.85;;;;;;;;;;4999408;28;20033;-74